Second Mesa, Arizona
Current Conditions -  °F | °C
As of 4:56 PM on Tuesday 21 Oct 2014 (Local Time) from KINW Reporting Station
Broken Clouds Broken Clouds  
Wind Chill: 23°   Ceiling: 8500
Heat Index: 23°   Visibility: 10mi
Dew Point:   Wind: 6mph
Humidity: 29%   Direction: 100°E
Pressure: 29.97"   Gusts: NA
Location:  35.82°N, 110.5°W
Report Text: KINW 212356Z AUTO 10005KT 10SM BKN085 23/04 A2997 RMK AO2 SLP101 T02280039 10244 20200 55009
Loading
Personal Weather Stations






























Interactive Weather Map
Tropical Storm Tracking
New forecast layout! Learn more

10-Day Weather Forecast

Advertisements
Track Severe Weather on mobile